createdAt,value
2022-10-23T00:02:08.640Z,6.95
2022-10-23T00:04:37.685Z,7.97
2022-10-23T00:07:06.881Z,7.97
2022-10-23T00:09:35.862Z,7.90
2022-10-23T00:12:05.301Z,7.93
2022-10-23T00:14:35.741Z,7.70
2022-10-23T00:17:05.064Z,7.55
2022-10-23T00:19:34.112Z,7.68
2022-10-23T00:22:03.289Z,8.17
2022-10-23T00:24:32.291Z,7.88
2022-10-23T00:27:01.488Z,8.98
2022-10-23T00:29:30.492Z,7.60
2022-10-23T00:32:01.176Z,7.17
2022-10-23T00:34:30.190Z,7.80
2022-10-23T00:36:59.409Z,7.65
2022-10-23T00:39:28.443Z,7.35
2022-10-23T00:41:57.830Z,8.67
2022-10-23T00:45:09.838Z,8.87
2022-10-23T00:47:40.665Z,7.80
2022-10-23T00:50:10.093Z,8.35
2022-10-23T00:52:46.531Z,8.35
2022-10-23T00:55:16.585Z,8.07
2022-10-23T01:00:19.871Z,8.82
2022-10-23T01:02:51.012Z,8.55
2022-10-23T01:05:23.917Z,8.43
2022-10-23T01:07:57.421Z,8.35
2022-10-23T01:10:36.091Z,9.18
2022-10-23T01:13:16.500Z,9.23
2022-10-23T01:15:50.426Z,9.20
2022-10-23T01:18:27.146Z,9.13
2022-10-23T01:21:02.265Z,9.70
2022-10-23T01:23:57.710Z,8.68
2022-10-23T01:26:48.766Z,9.25
2022-10-23T01:29:26.591Z,8.43
2022-10-23T01:32:01.589Z,9.50
2022-10-23T01:34:36.115Z,10.10
2022-10-23T01:37:09.108Z,9.45
2022-10-23T01:39:44.738Z,9.85
2022-10-23T01:42:18.180Z,10.13
2022-10-23T01:44:52.842Z,10.07
2022-10-23T01:47:29.415Z,9.93
2022-10-23T01:50:08.012Z,9.70
2022-10-23T01:52:39.306Z,10.45
2022-10-23T01:55:11.695Z,10.00
2022-10-23T01:57:43.363Z,10.52
2022-10-23T02:00:17.794Z,10.70
2022-10-23T02:02:58.807Z,10.95
2022-10-23T02:05:34.578Z,11.27
2022-10-23T02:08:06.438Z,10.10
2022-10-23T02:10:43.040Z,10.05
2022-10-23T02:13:18.609Z,10.25
2022-10-23T02:15:55.934Z,9.63
2022-10-23T02:18:36.158Z,10.68
2022-10-23T02:21:11.240Z,10.95
2022-10-23T02:23:48.252Z,9.98
2022-10-23T02:26:23.026Z,9.55
2022-10-23T02:28:58.381Z,9.30
2022-10-23T02:31:29.082Z,9.27
2022-10-23T02:33:58.070Z,8.82
2022-10-23T02:36:27.275Z,8.38
2022-10-23T02:38:56.650Z,9.07
2022-10-23T02:41:34.964Z,9.50
2022-10-23T02:44:29.575Z,9.43
2022-10-23T02:47:11.367Z,8.38
2022-10-23T02:49:48.623Z,8.68
2022-10-23T02:52:25.568Z,8.75
2022-10-23T02:55:07.342Z,8.25
2022-10-23T02:57:55.054Z,9.02
2022-10-23T03:00:25.486Z,8.63
2022-10-23T03:02:59.713Z,8.70
2022-10-23T03:05:35.278Z,8.35
2022-10-23T03:08:06.325Z,8.77
2022-10-23T03:10:35.450Z,8.30
2022-10-23T03:13:04.965Z,7.78
2022-10-23T03:15:42.452Z,8.65
2022-10-23T03:18:16.410Z,10.20
2022-10-23T03:20:51.533Z,9.52
2022-10-23T03:23:24.180Z,11.13
2022-10-23T03:25:56.077Z,10.93
2022-10-23T03:28:36.755Z,10.13
2022-10-23T03:31:06.254Z,11.48
2022-10-23T03:33:37.145Z,10.95
2022-10-23T03:36:12.114Z,10.40
2022-10-23T03:38:42.402Z,10.98
2022-10-23T03:41:12.900Z,10.15
2022-10-23T03:43:42.169Z,10.57
2022-10-23T03:46:12.968Z,10.02
2022-10-23T03:48:43.673Z,10.40
2022-10-23T03:51:13.243Z,9.70
2022-10-23T03:56:12.392Z,11.43
2022-10-23T03:58:42.493Z,9.30
2022-10-23T04:01:11.560Z,11.70
2022-10-23T04:03:42.232Z,11.23
2022-10-23T04:06:11.408Z,10.82
2022-10-23T04:08:40.774Z,11.73
2022-10-23T04:11:16.027Z,10.20
2022-10-23T04:13:48.449Z,10.10
2022-10-23T04:16:17.619Z,10.32
2022-10-23T04:18:48.809Z,9.50
2022-10-23T04:21:18.253Z,9.48
2022-10-23T04:23:47.439Z,8.23
2022-10-23T04:26:19.191Z,9.77
2022-10-23T04:28:48.565Z,10.93
2022-10-23T04:31:18.342Z,8.70
2022-10-23T04:33:48.969Z,10.03
2022-10-23T04:36:32.399Z,9.52
2022-10-23T04:39:09.389Z,8.95
2022-10-23T04:41:39.723Z,10.50
2022-10-23T04:44:09.396Z,10.52
2022-10-23T04:46:41.290Z,11.50
2022-10-23T04:49:13.419Z,10.65
2022-10-23T04:52:01.469Z,10.80
2022-10-23T04:54:38.414Z,9.35
2022-10-23T04:57:27.618Z,9.32
2022-10-23T05:00:02.103Z,9.15
2022-10-23T05:02:37.975Z,9.68
2022-10-23T05:05:10.224Z,9.50
2022-10-23T05:08:03.226Z,9.60
2022-10-23T05:10:54.947Z,9.32
2022-10-23T05:13:24.150Z,8.68
2022-10-23T05:15:54.610Z,8.15
2022-10-23T05:21:02.794Z,9.52
2022-10-23T05:23:35.634Z,9.18
2022-10-23T05:26:05.945Z,9.82
2022-10-23T05:28:35.198Z,11.00
2022-10-23T05:31:06.785Z,11.73
2022-10-23T05:33:41.076Z,10.88
2022-10-23T05:36:15.145Z,11.77
2022-10-23T05:38:47.212Z,10.98
2022-10-23T05:41:19.298Z,11.05
2022-10-23T05:43:48.703Z,12.18
2022-10-23T05:46:36.444Z,13.60
2022-10-23T05:49:26.348Z,12.02
2022-10-23T05:52:15.458Z,14.55
2022-10-23T05:55:13.311Z,14.45
2022-10-23T05:57:51.489Z,14.50
2022-10-23T06:00:31.770Z,14.75
2022-10-23T06:03:20.912Z,13.23
2022-10-23T06:05:51.608Z,15.00
2022-10-23T06:08:27.191Z,14.98
2022-10-23T06:10:56.176Z,16.23
2022-10-23T06:13:25.403Z,15.63
2022-10-23T06:15:54.469Z,16.27
2022-10-23T06:18:27.188Z,17.15
2022-10-23T06:21:02.910Z,16.77
2022-10-23T06:23:35.246Z,18.08
2022-10-23T06:26:20.587Z,17.25
2022-10-23T06:28:57.181Z,17.48
2022-10-23T06:31:28.249Z,17.55
2022-10-23T06:34:00.916Z,17.60
2022-10-23T06:36:32.162Z,18.42
2022-10-23T06:39:15.891Z,18.45
2022-10-23T06:42:03.108Z,18.50
2022-10-23T06:44:54.475Z,17.83
2022-10-23T06:47:49.985Z,17.00
2022-10-23T06:53:20.221Z,17.63
2022-10-23T06:56:01.437Z,17.08
2022-10-23T06:58:31.050Z,17.70
2022-10-23T07:01:12.371Z,18.92
2022-10-23T07:03:43.615Z,18.52
2022-10-23T07:08:42.704Z,16.65
2022-10-23T07:11:45.361Z,16.33
2022-10-23T07:14:14.934Z,16.30
2022-10-23T07:16:44.861Z,16.48
2022-10-23T07:19:13.952Z,15.35
2022-10-23T07:21:56.788Z,16.77
2022-10-23T07:24:46.091Z,16.40
2022-10-23T07:27:26.729Z,16.52
2022-10-23T07:30:02.783Z,17.83
2022-10-23T07:32:37.502Z,16.17
2022-10-23T07:35:25.314Z,15.85
2022-10-23T07:38:01.450Z,16.48
2022-10-23T07:40:34.168Z,17.00
2022-10-23T07:43:06.572Z,16.75
2022-10-23T07:45:35.636Z,16.88
2022-10-23T07:48:11.903Z,15.88
2022-10-23T07:51:03.123Z,15.37
2022-10-23T07:53:33.438Z,14.57
2022-10-23T07:56:15.573Z,16.73
2022-10-23T07:59:06.203Z,16.25
2022-10-23T08:01:39.115Z,15.43
2022-10-23T08:04:08.592Z,16.02
2022-10-23T08:06:42.950Z,15.35
2022-10-23T08:09:12.286Z,14.83
2022-10-23T08:11:44.174Z,15.52
2022-10-23T08:14:19.004Z,13.93
2022-10-23T08:16:49.286Z,14.23
2022-10-23T08:19:18.899Z,14.68
2022-10-23T08:21:49.542Z,14.05
2022-10-23T08:24:18.812Z,15.73
2022-10-23T08:26:51.233Z,13.77
2022-10-23T08:29:25.349Z,14.80
2022-10-23T08:31:57.387Z,14.32
2022-10-23T08:34:31.331Z,13.30
2022-10-23T08:37:01.667Z,12.15
2022-10-23T08:39:31.323Z,12.25
2022-10-23T08:42:21.029Z,12.48
2022-10-23T08:45:02.697Z,12.05
2022-10-23T08:47:40.106Z,11.55
2022-10-23T08:50:37.221Z,10.10
2022-10-23T08:53:16.894Z,9.52
2022-10-23T08:55:53.008Z,9.57
2022-10-23T08:58:29.503Z,7.85
2022-10-23T09:01:00.402Z,6.97
2022-10-23T09:03:29.493Z,7.07
2022-10-23T09:06:07.622Z,6.50
2022-10-23T09:08:48.296Z,6.72
2022-10-23T09:11:26.471Z,5.80
2022-10-23T09:14:22.139Z,5.50
2022-10-23T09:17:04.205Z,5.07
2022-10-23T09:19:33.452Z,4.93
2022-10-23T09:22:03.024Z,4.72
2022-10-23T09:24:33.444Z,5.05
2022-10-23T09:27:02.648Z,5.43
2022-10-23T09:29:33.138Z,5.30
2022-10-23T09:32:06.865Z,4.88
2022-10-23T09:34:36.752Z,4.63
2022-10-23T09:37:21.656Z,3.60
2022-10-23T09:39:51.107Z,3.70
2022-10-23T09:42:25.314Z,3.80
2022-10-23T09:44:57.485Z,3.92
2022-10-23T09:47:28.616Z,3.25
2022-10-23T09:49:58.793Z,3.72
2022-10-23T09:52:35.715Z,3.90
2022-10-23T09:55:20.739Z,3.90
2022-10-23T09:57:50.629Z,3.30
2022-10-23T10:00:22.269Z,3.45
2022-10-23T10:03:01.420Z,3.40
2022-10-23T10:05:33.122Z,3.45
2022-10-23T10:08:15.300Z,3.70
2022-10-23T10:10:48.618Z,3.65
2022-10-23T10:13:36.577Z,3.42
2022-10-23T10:16:12.432Z,3.00
2022-10-23T10:18:48.806Z,3.00
2022-10-23T10:21:22.431Z,3.03
2022-10-23T10:23:57.801Z,2.83
2022-10-23T10:26:36.251Z,2.70
2022-10-23T10:29:18.481Z,3.00
2022-10-23T10:32:00.910Z,3.80
2022-10-23T10:34:42.428Z,3.45
2022-10-23T10:37:22.581Z,3.70
2022-10-23T10:39:59.802Z,3.13
2022-10-23T10:42:45.826Z,2.83
2022-10-23T10:45:24.593Z,33.80
2022-10-23T10:48:27.915Z,13.40
2022-10-23T10:51:40.039Z,15.68
2022-10-23T10:54:19.802Z,5.50
2022-10-23T10:56:49.977Z,3.88
2022-10-23T10:59:24.463Z,16.10
2022-10-23T11:01:59.635Z,7.95
2022-10-23T11:04:36.561Z,29.15
2022-10-23T11:07:12.781Z,11.10
2022-10-23T11:09:43.143Z,4.78
2022-10-23T11:12:19.633Z,6.80
2022-10-23T11:14:50.007Z,12.68
2022-10-23T11:17:25.137Z,4.85
2022-10-23T11:20:02.721Z,3.97
2022-10-23T11:22:38.592Z,4.10
2022-10-23T11:25:33.033Z,4.47
2022-10-23T11:28:17.002Z,4.68
2022-10-23T11:31:07.063Z,9.13
2022-10-23T11:34:13.439Z,6.57
2022-10-23T11:36:49.745Z,5.40
2022-10-23T11:39:26.134Z,5.10
2022-10-23T11:42:00.119Z,4.87
2022-10-23T11:44:41.611Z,4.72
2022-10-23T11:47:36.594Z,4.32
2022-10-23T11:50:27.699Z,3.97
2022-10-23T11:53:14.672Z,3.92
2022-10-23T11:56:05.333Z,4.65
2022-10-23T11:58:46.830Z,4.72
2022-10-23T12:01:35.100Z,21.52
2022-10-23T12:04:17.932Z,5.28
2022-10-23T12:06:50.913Z,4.10
2022-10-23T12:09:41.147Z,4.07
2022-10-23T12:12:36.234Z,3.50
2022-10-23T12:15:30.351Z,5.53
2022-10-23T12:18:15.014Z,24.73
2022-10-23T12:20:51.515Z,16.30
2022-10-23T12:23:37.054Z,6.65
2022-10-23T12:26:29.892Z,9.10
2022-10-23T12:29:08.788Z,23.38
2022-10-23T12:31:49.630Z,7.47
2022-10-23T12:34:42.833Z,2.88
2022-10-23T12:37:38.361Z,2.90
2022-10-23T12:43:02.257Z,13.63
2022-10-23T12:45:47.652Z,9.85
2022-10-23T12:48:44.866Z,14.50
2022-10-23T12:51:24.067Z,2.20
2022-10-23T12:53:53.233Z,2.10
2022-10-23T12:56:36.438Z,3.20
2022-10-23T12:59:18.149Z,4.05
2022-10-23T13:01:52.637Z,8.85
2022-10-23T13:04:28.986Z,10.45
2022-10-23T13:07:00.296Z,2.30
2022-10-23T13:09:33.092Z,2.20
2022-10-23T13:12:25.712Z,2.30
2022-10-23T13:15:01.098Z,2.38
2022-10-23T13:17:39.585Z,2.13
2022-10-23T13:20:20.780Z,2.30
2022-10-23T13:22:57.693Z,2.40
2022-10-23T13:25:31.899Z,2.50
2022-10-23T13:28:25.428Z,2.28
2022-10-23T13:31:24.108Z,2.08
2022-10-23T13:34:06.969Z,2.30
2022-10-23T13:36:39.546Z,1.90
2022-10-23T13:39:16.225Z,2.30
2022-10-23T13:41:47.201Z,2.00
2022-10-23T13:44:18.551Z,2.45
2022-10-23T13:46:48.380Z,2.33
2022-10-23T13:49:19.246Z,2.17
2022-10-23T13:51:52.124Z,2.40
2022-10-23T13:54:23.706Z,2.30
2022-10-23T13:56:53.079Z,2.00
2022-10-23T13:59:23.048Z,1.95
2022-10-23T14:01:52.606Z,2.00
2022-10-23T14:04:23.987Z,1.80
2022-10-23T14:06:58.348Z,1.80
2022-10-23T14:09:27.898Z,2.00
2022-10-23T14:11:56.834Z,1.60
2022-10-23T14:14:26.011Z,1.73
2022-10-23T14:16:55.068Z,1.67
2022-10-23T14:19:25.683Z,1.90
2022-10-23T14:21:54.649Z,2.30
2022-10-23T14:24:25.914Z,2.17
2022-10-23T14:26:54.885Z,2.60
2022-10-23T14:29:33.451Z,2.43
2022-10-23T14:32:25.264Z,2.40
2022-10-23T14:35:28.894Z,3.10
2022-10-23T14:38:13.954Z,3.17
2022-10-23T14:41:36.532Z,2.97
2022-10-23T14:44:11.527Z,2.72
2022-10-23T14:47:05.352Z,3.30
2022-10-23T14:50:36.936Z,4.40
2022-10-23T14:53:18.668Z,3.83
2022-10-23T14:56:15.024Z,3.90
2022-10-23T14:59:25.682Z,3.83
2022-10-23T15:02:25.208Z,4.03
2022-10-23T15:05:23.435Z,3.65
2022-10-23T15:09:07.686Z,3.35
2022-10-23T15:14:22.671Z,2.42
2022-10-23T15:16:52.648Z,2.70
2022-10-23T15:21:52.533Z,1.88
2022-10-23T15:24:22.014Z,2.05
2022-10-23T15:26:53.707Z,2.28
2022-10-23T15:29:37.901Z,2.30
2022-10-23T15:32:07.809Z,2.40
2022-10-23T15:34:37.653Z,2.65
2022-10-23T15:37:08.284Z,2.90
2022-10-23T15:40:09.304Z,2.70
2022-10-23T15:42:50.992Z,2.60
2022-10-23T15:45:20.716Z,2.55
2022-10-23T15:47:54.746Z,2.97
2022-10-23T15:50:29.531Z,3.15
2022-10-23T15:52:58.603Z,3.10
2022-10-23T15:55:42.667Z,3.83
2022-10-23T15:58:27.569Z,3.67
2022-10-23T16:01:25.298Z,3.90
2022-10-23T16:03:58.105Z,3.08
2022-10-23T16:06:35.391Z,3.20
2022-10-23T16:09:11.297Z,3.60
2022-10-23T16:11:46.726Z,3.28
2022-10-23T16:14:22.598Z,3.50
2022-10-23T16:16:53.848Z,3.92
2022-10-23T16:19:24.129Z,3.88
2022-10-23T16:21:53.360Z,4.18
2022-10-23T16:24:22.325Z,4.38
2022-10-23T16:26:53.361Z,4.72
2022-10-23T16:29:24.440Z,5.03
2022-10-23T16:31:54.586Z,5.82
2022-10-23T16:34:23.903Z,5.22
2022-10-23T16:36:53.118Z,5.47
2022-10-23T16:39:33.944Z,5.70
2022-10-23T16:42:21.837Z,6.20
2022-10-23T16:45:13.110Z,6.53
2022-10-23T16:47:42.553Z,7.03
2022-10-23T16:50:12.192Z,7.00
2022-10-23T16:52:41.572Z,8.05
2022-10-23T16:55:11.226Z,7.63
2022-10-23T16:57:40.415Z,8.93
2022-10-23T17:00:11.741Z,9.00
2022-10-23T17:02:40.992Z,10.38
2022-10-23T17:05:10.362Z,9.50
2022-10-23T17:07:39.542Z,10.57
2022-10-23T17:10:09.407Z,10.63
2022-10-23T17:12:38.684Z,10.77
2022-10-23T17:15:09.045Z,9.98
2022-10-23T17:17:39.637Z,10.13
2022-10-23T17:20:09.505Z,11.15
2022-10-23T17:22:39.028Z,11.27
2022-10-23T17:25:10.229Z,10.80
2022-10-23T17:27:39.416Z,11.38
2022-10-23T17:30:12.683Z,12.35
2022-10-23T17:32:45.423Z,11.57
2022-10-23T17:35:15.024Z,10.95
2022-10-23T17:37:46.636Z,11.40
2022-10-23T17:40:15.775Z,11.65
2022-10-23T17:42:45.469Z,11.87
2022-10-23T17:45:14.656Z,11.73
2022-10-23T17:47:45.465Z,11.35
2022-10-23T17:50:14.668Z,10.63
2022-10-23T17:52:44.160Z,10.88
2022-10-23T17:55:13.515Z,10.57
2022-10-23T17:57:43.311Z,10.75
2022-10-23T18:00:13.470Z,10.93
2022-10-23T18:02:57.561Z,12.13
2022-10-23T18:05:29.473Z,10.85
2022-10-23T18:07:58.687Z,11.80
2022-10-23T18:10:28.000Z,11.18
2022-10-23T18:12:57.214Z,12.35
2022-10-23T18:15:26.232Z,13.05
2022-10-23T18:18:02.279Z,13.13
2022-10-23T18:20:31.417Z,16.30
2022-10-23T18:23:00.571Z,17.98
2022-10-23T18:25:29.542Z,16.50
2022-10-23T18:28:01.727Z,16.00
2022-10-23T18:30:31.655Z,15.25
2022-10-23T18:33:02.265Z,14.73
2022-10-23T18:38:04.781Z,14.50
2022-10-23T18:40:34.847Z,14.88
2022-10-23T18:45:36.679Z,13.65
2022-10-23T18:48:07.735Z,13.70
2022-10-23T18:50:38.247Z,13.15
2022-10-23T18:53:07.440Z,14.35
2022-10-23T18:55:36.427Z,14.77
2022-10-23T18:58:05.627Z,17.90
2022-10-23T19:00:34.649Z,15.63
2022-10-23T19:03:03.932Z,14.47
2022-10-23T19:05:34.423Z,14.23
2022-10-23T19:08:03.650Z,16.15
2022-10-23T19:10:34.186Z,14.65
2022-10-23T19:13:03.351Z,13.73
2022-10-23T19:15:33.637Z,13.23
2022-10-23T19:18:03.253Z,14.25
2022-10-23T19:20:34.778Z,14.82
2022-10-23T19:23:06.391Z,13.32
2022-10-23T19:25:37.457Z,13.23
2022-10-23T19:28:06.876Z,13.68
2022-10-23T19:30:36.751Z,12.75
2022-10-23T19:33:06.043Z,12.60
2022-10-23T19:35:36.417Z,12.57
2022-10-23T19:38:05.661Z,13.13
2022-10-23T19:40:34.662Z,12.50
2022-10-23T19:43:03.851Z,12.40
2022-10-23T19:45:32.901Z,11.55
2022-10-23T19:48:02.049Z,11.05
2022-10-23T19:50:31.097Z,11.45
2022-10-23T19:53:01.722Z,12.10
2022-10-23T19:55:30.805Z,11.85
2022-10-23T19:58:00.469Z,11.98
2022-10-23T20:00:29.420Z,12.10
2022-10-23T20:02:58.653Z,12.07
2022-10-23T20:05:27.604Z,11.88
2022-10-23T20:07:57.351Z,12.20
2022-10-23T20:10:28.170Z,12.18
2022-10-23T20:13:15.023Z,11.48
2022-10-23T20:15:46.277Z,11.73
2022-10-23T20:18:15.455Z,11.70
2022-10-23T20:20:44.429Z,11.50
2022-10-23T20:23:13.592Z,11.85
2022-10-23T20:25:43.928Z,12.55
2022-10-23T20:28:15.160Z,11.48
2022-10-23T20:30:45.985Z,12.43
2022-10-23T20:33:15.219Z,11.50
2022-10-23T20:35:44.622Z,11.45
2022-10-23T20:38:13.907Z,11.68
2022-10-23T20:40:44.248Z,11.88
2022-10-23T20:43:13.372Z,12.57
2022-10-23T20:45:42.306Z,11.63
2022-10-23T20:48:11.549Z,12.88
2022-10-23T20:50:40.511Z,12.10
2022-10-23T20:53:09.656Z,12.18
2022-10-23T20:55:44.733Z,12.07
2022-10-23T20:58:13.898Z,11.07
2022-10-23T21:00:42.876Z,11.15
2022-10-23T21:03:12.099Z,11.37
2022-10-23T21:05:41.112Z,11.23
2022-10-23T21:08:10.330Z,10.43
2022-10-23T21:10:48.133Z,11.50
2022-10-23T21:13:17.304Z,10.90
2022-10-23T21:15:46.251Z,10.75
2022-10-23T21:18:33.645Z,10.18
2022-10-23T21:21:14.442Z,11.15
2022-10-23T21:23:49.140Z,10.38
2022-10-23T21:26:24.836Z,10.45
2022-10-23T21:29:13.722Z,10.20
2022-10-23T21:34:13.183Z,10.65
2022-10-23T21:37:10.858Z,10.95
2022-10-23T21:39:35.177Z,10.25
2022-10-23T21:42:05.645Z,10.45
2022-10-23T21:44:34.864Z,11.63
2022-10-23T21:47:03.831Z,10.50
2022-10-23T21:49:33.175Z,10.30
2022-10-23T21:52:04.506Z,10.30
2022-10-23T21:54:33.717Z,9.88
2022-10-23T21:57:04.311Z,11.38
2022-10-23T21:59:36.128Z,11.07
2022-10-23T22:02:05.899Z,11.00
2022-10-23T22:04:35.645Z,11.35
2022-10-23T22:07:04.623Z,10.73
2022-10-23T22:09:35.099Z,9.60
2022-10-23T22:14:34.304Z,10.73
2022-10-23T22:17:03.192Z,11.05
2022-10-23T22:19:32.406Z,10.85
2022-10-23T22:22:01.292Z,10.88
2022-10-23T22:24:30.362Z,11.10
2022-10-23T22:26:59.380Z,11.20
2022-10-23T22:29:30.913Z,9.95
2022-10-23T22:32:00.122Z,10.30
2022-10-23T22:34:51.852Z,10.43
2022-10-23T22:37:20.355Z,9.88
2022-10-23T22:39:52.432Z,10.48
2022-10-23T22:42:21.488Z,10.32
2022-10-23T22:44:51.968Z,10.43
2022-10-23T22:49:49.736Z,11.27
2022-10-23T22:52:18.593Z,10.77
2022-10-23T22:54:49.090Z,10.98
2022-10-23T22:59:46.934Z,10.38
2022-10-23T23:02:17.191Z,10.68
2022-10-23T23:04:46.286Z,10.60
2022-10-23T23:07:15.175Z,11.52
2022-10-23T23:09:45.667Z,11.57
2022-10-23T23:14:44.601Z,11.45
2022-10-23T23:17:13.776Z,11.32
2022-10-23T23:19:44.248Z,11.73
2022-10-23T23:24:42.103Z,11.88
2022-10-23T23:27:10.984Z,13.68
2022-10-23T23:29:40.092Z,12.90
2022-10-23T23:32:08.979Z,14.30
2022-10-23T23:34:38.076Z,14.45
2022-10-23T23:37:08.574Z,13.68
2022-10-23T23:39:37.677Z,14.65
2022-10-23T23:42:06.645Z,14.15
2022-10-23T23:44:41.977Z,14.00
2022-10-23T23:47:19.616Z,14.13
2022-10-23T23:49:48.747Z,14.63
2022-10-23T23:52:19.018Z,13.90
2022-10-23T23:54:48.352Z,13.93
2022-10-23T23:57:17.220Z,14.27
2022-10-23T23:59:46.357Z,15.10
